Raymond, Illinois
Current Conditions -  °F | °C
As of 1:55 AM on Saturday 25 Oct 2014 (Local Time) from K3LF Reporting Station
Clear Clear  
Wind Chill: 54°   Ceiling: Unl
Heat Index: 54°   Visibility: 10mi
Dew Point: 49°   Wind: 6mph
Humidity: 83%   Direction: 190°S
Pressure: 29.97"   Gusts: NA
Location:  39.32°N, 89.57°W
Report Text: K3LF 250655Z AUTO 19005KT 10SM CLR 12/09 A2997 RMK AO2 T01200092
Loading
Personal Weather Stations






























Interactive Weather Map
Tropical Storm Tracking
New forecast layout! Learn more

10-Day Weather Forecast

Advertisements
Track Severe Weather on mobile